sensor_id;sensor_type;location;lat;lon;timestamp;pressure;altitude;pressure_sealevel;temperature;humidity
70833;BME280;58452;59.418;17.962;2023-04-16T00:01:36;102420.66;;;3.17;61.81
70833;BME280;58452;59.418;17.962;2023-04-16T00:04:01;102420.56;;;3.20;61.92
70833;BME280;58452;59.418;17.962;2023-04-16T00:06:26;102417.28;;;3.17;61.93
70833;BME280;58452;59.418;17.962;2023-04-16T00:08:52;102420.16;;;3.08;61.88
70833;BME280;58452;59.418;17.962;2023-04-16T00:11:18;102418.50;;;3.07;62.32
70833;BME280;58452;59.418;17.962;2023-04-16T00:13:43;102418.59;;;3.04;62.33
70833;BME280;58452;59.418;17.962;2023-04-16T00:16:09;102412.69;;;3.02;62.07
70833;BME280;58452;59.418;17.962;2023-04-16T00:18:34;102415.25;;;3.02;62.47
70833;BME280;58452;59.418;17.962;2023-04-16T00:21:00;102410.25;;;2.99;62.24
70833;BME280;58452;59.418;17.962;2023-04-16T00:23:25;102406.03;;;2.97;62.31
70833;BME280;58452;59.418;17.962;2023-04-16T00:25:51;102402.75;;;2.94;62.66
70833;BME280;58452;59.418;17.962;2023-04-16T00:28:18;102398.59;;;2.91;62.92
70833;BME280;58452;59.418;17.962;2023-04-16T00:30:43;102401.16;;;2.91;62.39
70833;BME280;58452;59.418;17.962;2023-04-16T00:33:08;102393.72;;;2.85;63.14
70833;BME280;58452;59.418;17.962;2023-04-16T00:35:34;102396.38;;;2.82;63.33
70833;BME280;58452;59.418;17.962;2023-04-16T00:38:00;102400.28;;;2.68;64.25
70833;BME280;58452;59.418;17.962;2023-04-16T00:40:28;102395.06;;;2.71;63.98
70833;BME280;58452;59.418;17.962;2023-04-16T00:42:54;102390.81;;;2.71;63.77
70833;BME280;58452;59.418;17.962;2023-04-16T00:45:19;102401.88;;;2.70;63.93
70833;BME280;58452;59.418;17.962;2023-04-16T00:47:45;102394.34;;;2.67;64.06
70833;BME280;58452;59.418;17.962;2023-04-16T00:50:11;102391.94;;;2.63;64.66
70833;BME280;58452;59.418;17.962;2023-04-16T00:52:37;102381.97;;;2.55;64.65
70833;BME280;58452;59.418;17.962;2023-04-16T00:55:05;102388.06;;;2.51;64.88
70833;BME280;58452;59.418;17.962;2023-04-16T00:57:31;102386.97;;;2.58;64.72
70833;BME280;58452;59.418;17.962;2023-04-16T00:59:57;102390.81;;;2.45;64.97
70833;BME280;58452;59.418;17.962;2023-04-16T01:02:22;102387.47;;;2.43;65.22
70833;BME280;58452;59.418;17.962;2023-04-16T01:04:48;102385.97;;;2.37;65.26
70833;BME280;58452;59.418;17.962;2023-04-16T01:07:14;102386.78;;;2.38;65.20
70833;BME280;58452;59.418;17.962;2023-04-16T01:09:39;102394.34;;;2.41;65.12
70833;BME280;58452;59.418;17.962;2023-04-16T01:12:05;102379.09;;;2.39;65.02
70833;BME280;58452;59.418;17.962;2023-04-16T01:14:30;102390.00;;;2.43;64.83
70833;BME280;58452;59.418;17.962;2023-04-16T01:17:01;102386.09;;;2.33;65.12
70833;BME280;58452;59.418;17.962;2023-04-16T01:19:27;102379.63;;;2.23;65.35
70833;BME280;58452;59.418;17.962;2023-04-16T01:21:53;102384.63;;;2.26;65.44
70833;BME280;58452;59.418;17.962;2023-04-16T01:24:18;102383.84;;;2.24;65.66
70833;BME280;58452;59.418;17.962;2023-04-16T01:26:44;102388.94;;;2.24;66.13
70833;BME280;58452;59.418;17.962;2023-04-16T01:29:10;102388.94;;;2.24;65.87
70833;BME280;58452;59.418;17.962;2023-04-16T01:31:35;102383.84;;;2.24;65.75
70833;BME280;58452;59.418;17.962;2023-04-16T01:34:00;102374.72;;;2.17;66.16
70833;BME280;58452;59.418;17.962;2023-04-16T01:36:26;102373.84;;;2.18;66.17
70833;BME280;58452;59.418;17.962;2023-04-16T01:38:51;102375.63;;;2.16;66.06
70833;BME280;58452;59.418;17.962;2023-04-16T01:41:16;102373.31;;;2.08;66.65
70833;BME280;58452;59.418;17.962;2023-04-16T01:43:42;102368.38;;;2.02;67.25
70833;BME280;58452;59.418;17.962;2023-04-16T01:46:17;102367.75;;;1.95;66.89
70833;BME280;58452;59.418;17.962;2023-04-16T01:48:44;102367.84;;;1.92;66.99
70833;BME280;58452;59.418;17.962;2023-04-16T01:51:10;102369.78;;;1.84;67.34
70833;BME280;58452;59.418;17.962;2023-04-16T01:53:35;102367.28;;;1.83;67.47
70833;BME280;58452;59.418;17.962;2023-04-16T01:56:01;102368.06;;;1.85;67.20
70833;BME280;58452;59.418;17.962;2023-04-16T01:58:28;102363.94;;;1.81;68.14
70833;BME280;58452;59.418;17.962;2023-04-16T02:00:54;102376.75;;;1.78;68.23
70833;BME280;58452;59.418;17.962;2023-04-16T02:03:20;102376.81;;;1.76;68.26
70833;BME280;58452;59.418;17.962;2023-04-16T02:05:48;102380.28;;;1.74;68.16
70833;BME280;58452;59.418;17.962;2023-04-16T02:08:13;102372.09;;;1.64;68.21
70833;BME280;58452;59.418;17.962;2023-04-16T02:10:39;102379.75;;;1.63;68.46
70833;BME280;58452;59.418;17.962;2023-04-16T02:13:04;102375.69;;;1.57;68.97
70833;BME280;58452;59.418;17.962;2023-04-16T02:15:29;102373.50;;;1.43;69.42
70833;BME280;58452;59.418;17.962;2023-04-16T02:17:55;102375.31;;;1.40;69.35
70833;BME280;58452;59.418;17.962;2023-04-16T02:20:21;102372.72;;;1.43;69.70
70833;BME280;58452;59.418;17.962;2023-04-16T02:22:46;102364.31;;;1.39;69.86
70833;BME280;58452;59.418;17.962;2023-04-16T02:25:12;102368.69;;;1.34;70.25
70833;BME280;58452;59.418;17.962;2023-04-16T02:27:38;102366.28;;;1.30;70.29
70833;BME280;58452;59.418;17.962;2023-04-16T02:30:04;102369.44;;;1.38;70.37
70833;BME280;58452;59.418;17.962;2023-04-16T02:32:30;102365.31;;;1.34;70.42
70833;BME280;58452;59.418;17.962;2023-04-16T02:34:55;102364.53;;;1.32;69.75
70833;BME280;58452;59.418;17.962;2023-04-16T02:37:21;102368.78;;;1.31;70.23
70833;BME280;58452;59.418;17.962;2023-04-16T02:39:47;102373.03;;;1.31;70.18
70833;BME280;58452;59.418;17.962;2023-04-16T02:42:14;102369.63;;;1.32;70.08
70833;BME280;58452;59.418;17.962;2023-04-16T02:44:40;102362.78;;;1.34;70.72
70833;BME280;58452;59.418;17.962;2023-04-16T02:47:06;102367.34;;;1.21;70.91
70833;BME280;58452;59.418;17.962;2023-04-16T02:49:31;102369.25;;;1.15;70.64
70833;BME280;58452;59.418;17.962;2023-04-16T02:51:57;102370.88;;;1.17;70.69
70833;BME280;58452;59.418;17.962;2023-04-16T02:54:22;102366.53;;;1.21;70.52
70833;BME280;58452;59.418;17.962;2023-04-16T02:56:48;102371.88;;;1.12;70.97
70833;BME280;58452;59.418;17.962;2023-04-16T02:59:13;102365.91;;;1.13;70.63
70833;BME280;58452;59.418;17.962;2023-04-16T03:01:39;102371.69;;;1.18;71.01
70833;BME280;58452;59.418;17.962;2023-04-16T03:04:04;102375.38;;;1.08;71.25
70833;BME280;58452;59.418;17.962;2023-04-16T03:06:30;102370.69;;;0.92;71.18
70833;BME280;58452;59.418;17.962;2023-04-16T03:08:55;102376.00;;;0.83;71.69
70833;BME280;58452;59.418;17.962;2023-04-16T03:11:21;102377.69;;;0.84;72.32
70833;BME280;58452;59.418;17.962;2023-04-16T03:13:47;102377.72;;;0.83;71.94
70833;BME280;58452;59.418;17.962;2023-04-16T03:16:13;102374.34;;;0.82;72.11
70833;BME280;58452;59.418;17.962;2023-04-16T03:18:38;102366.81;;;0.79;72.20
70833;BME280;58452;59.418;17.962;2023-04-16T03:21:04;102372.59;;;0.84;72.63
70833;BME280;58452;59.418;17.962;2023-04-16T03:23:29;102372.06;;;0.72;72.53
70833;BME280;58452;59.418;17.962;2023-04-16T03:25:55;102369.88;;;0.58;73.42
70833;BME280;58452;59.418;17.962;2023-04-16T03:28:20;102364.81;;;0.58;73.78
70833;BME280;58452;59.418;17.962;2023-04-16T03:30:50;102372.28;;;0.63;73.79
70833;BME280;58452;59.418;17.962;2023-04-16T03:33:16;102375.72;;;0.62;74.15
70833;BME280;58452;59.418;17.962;2023-04-16T03:35:42;102378.06;;;0.69;73.87
70833;BME280;58452;59.418;17.962;2023-04-16T03:38:07;102377.91;;;0.75;73.48
70833;BME280;58452;59.418;17.962;2023-04-16T03:40:33;102380.44;;;0.77;73.79
70833;BME280;58452;59.418;17.962;2023-04-16T03:42:58;102380.63;;;0.69;73.37
70833;BME280;58452;59.418;17.962;2023-04-16T03:45:23;102381.56;;;0.65;73.80
70833;BME280;58452;59.418;17.962;2023-04-16T03:47:49;102384.03;;;0.68;73.58
70833;BME280;58452;59.418;17.962;2023-04-16T03:50:18;102376.41;;;0.68;73.45
70833;BME280;58452;59.418;17.962;2023-04-16T03:52:44;102383.97;;;0.70;73.84
70833;BME280;58452;59.418;17.962;2023-04-16T03:55:11;102383.75;;;0.79;73.48
70833;BME280;58452;59.418;17.962;2023-04-16T03:57:36;102384.75;;;0.73;73.53
70833;BME280;58452;59.418;17.962;2023-04-16T04:00:02;102382.91;;;0.78;73.56
70833;BME280;58452;59.418;17.962;2023-04-16T04:02:28;102383.28;;;0.63;74.50
70833;BME280;58452;59.418;17.962;2023-04-16T04:04:53;102382.25;;;0.70;73.90
70833;BME280;58452;59.418;17.962;2023-04-16T04:07:19;102384.59;;;0.79;73.89
70833;BME280;58452;59.418;17.962;2023-04-16T04:09:44;102383.00;;;0.75;73.64
70833;BME280;58452;59.418;17.962;2023-04-16T04:12:10;102386.41;;;0.74;74.26
70833;BME280;58452;59.418;17.962;2023-04-16T04:14:35;102395.72;;;0.74;74.13
70833;BME280;58452;59.418;17.962;2023-04-16T04:17:07;102397.19;;;0.84;74.22
70833;BME280;58452;59.418;17.962;2023-04-16T04:19:33;102397.41;;;0.75;73.99
70833;BME280;58452;59.418;17.962;2023-04-16T04:21:58;102398.34;;;0.71;74.17
70833;BME280;58452;59.418;17.962;2023-04-16T04:24:24;102399.44;;;0.61;75.08
70833;BME280;58452;59.418;17.962;2023-04-16T04:26:51;102402.72;;;0.66;74.89
70833;BME280;58452;59.418;17.962;2023-04-16T04:29:16;102398.41;;;0.69;75.35
70833;BME280;58452;59.418;17.962;2023-04-16T04:31:42;102400.13;;;0.67;74.89
70833;BME280;58452;59.418;17.962;2023-04-16T04:34:07;102399.91;;;0.76;75.15
70833;BME280;58452;59.418;17.962;2023-04-16T04:36:32;102401.44;;;0.83;74.94
70833;BME280;58452;59.418;17.962;2023-04-16T04:38:58;102401.34;;;0.86;74.90
70833;BME280;58452;59.418;17.962;2023-04-16T04:41:23;102400.50;;;0.86;74.93
70833;BME280;58452;59.418;17.962;2023-04-16T04:43:51;102397.94;;;0.87;75.08
70833;BME280;58452;59.418;17.962;2023-04-16T04:46:16;102391.66;;;0.68;76.11
70833;BME280;58452;59.418;17.962;2023-04-16T04:48:42;102392.50;;;0.67;75.95
70833;BME280;58452;59.418;17.962;2023-04-16T04:51:07;102390.66;;;0.74;76.27
70833;BME280;58452;59.418;17.962;2023-04-16T04:53:33;102394.59;;;0.85;76.25
70833;BME280;58452;59.418;17.962;2023-04-16T04:55:58;102398.06;;;0.81;76.09
70833;BME280;58452;59.418;17.962;2023-04-16T04:58:24;102399.59;;;0.88;76.21
70833;BME280;58452;59.418;17.962;2023-04-16T05:00:49;102388.44;;;0.94;76.47
70833;BME280;58452;59.418;17.962;2023-04-16T05:03:19;102399.94;;;1.07;76.06
70833;BME280;58452;59.418;17.962;2023-04-16T05:05:45;102387.44;;;0.99;76.61
70833;BME280;58452;59.418;17.962;2023-04-16T05:08:10;102392.31;;;1.07;76.08
70833;BME280;58452;59.418;17.962;2023-04-16T05:10:36;102393.72;;;1.19;75.76
70833;BME280;58452;59.418;17.962;2023-04-16T05:13:01;102382.06;;;1.10;76.06
70833;BME280;58452;59.418;17.962;2023-04-16T05:15:27;102391.63;;;1.33;75.65
70833;BME280;58452;59.418;17.962;2023-04-16T05:17:52;102384.16;;;1.27;76.14
70833;BME280;58452;59.418;17.962;2023-04-16T05:20:20;102389.97;;;1.32;75.58
70833;BME280;58452;59.418;17.962;2023-04-16T05:22:45;102385.88;;;1.26;75.98
70833;BME280;58452;59.418;17.962;2023-04-16T05:25:10;102383.34;;;1.26;76.08
70833;BME280;58452;59.418;17.962;2023-04-16T05:27:36;102388.22;;;1.34;75.54
70833;BME280;58452;59.418;17.962;2023-04-16T05:30:02;102389.63;;;1.44;75.94
70833;BME280;58452;59.418;17.962;2023-04-16T05:32:28;102391.59;;;1.64;75.67
70833;BME280;58452;59.418;17.962;2023-04-16T05:34:53;102383.66;;;1.74;75.01
70833;BME280;58452;59.418;17.962;2023-04-16T05:37:19;102386.50;;;1.93;74.88
70833;BME280;58452;59.418;17.962;2023-04-16T05:39:44;102387.69;;;1.81;74.26
70833;BME280;58452;59.418;17.962;2023-04-16T05:42:09;102387.28;;;1.95;74.56
70833;BME280;58452;59.418;17.962;2023-04-16T05:44:35;102384.50;;;2.03;74.05
70833;BME280;58452;59.418;17.962;2023-04-16T05:47:00;102381.19;;;2.01;73.65
70833;BME280;58452;59.418;17.962;2023-04-16T05:49:26;102381.47;;;2.18;73.14
70833;BME280;58452;59.418;17.962;2023-04-16T05:51:51;102382.91;;;2.26;72.95
70833;BME280;58452;59.418;17.962;2023-04-16T05:54:17;102385.38;;;2.29;72.40
70833;BME280;58452;59.418;17.962;2023-04-16T05:56:42;102386.31;;;2.53;72.70
70833;BME280;58452;59.418;17.962;2023-04-16T05:59:07;102383.69;;;2.55;71.41
70833;BME280;58452;59.418;17.962;2023-04-16T06:01:33;102394.13;;;2.21;72.05
70833;BME280;58452;59.418;17.962;2023-04-16T06:03:58;102381.88;;;2.32;72.70
70833;BME280;58452;59.418;17.962;2023-04-16T06:06:23;102390.75;;;2.46;71.67
70833;BME280;58452;59.418;17.962;2023-04-16T06:08:50;102385.78;;;2.68;70.80
70833;BME280;58452;59.418;17.962;2023-04-16T06:11:16;102386.25;;;2.79;70.11
70833;BME280;58452;59.418;17.962;2023-04-16T06:13:41;102367.44;;;2.83;69.86
70833;BME280;58452;59.418;17.962;2023-04-16T06:16:07;102371.03;;;3.03;69.44
70833;BME280;58452;59.418;17.962;2023-04-16T06:18:32;102373.00;;;2.94;68.80
70833;BME280;58452;59.418;17.962;2023-04-16T06:20:58;102372.81;;;3.01;68.99
70833;BME280;58452;59.418;17.962;2023-04-16T06:23:23;102379.34;;;3.08;68.51
70833;BME280;58452;59.418;17.962;2023-04-16T06:25:49;102380.72;;;2.93;67.96
70833;BME280;58452;59.418;17.962;2023-04-16T06:28:14;102373.59;;;3.01;68.48
70833;BME280;58452;59.418;17.962;2023-04-16T06:30:40;102372.34;;;3.13;68.25
70833;BME280;58452;59.418;17.962;2023-04-16T06:33:05;102381.44;;;2.97;67.74
70833;BME280;58452;59.418;17.962;2023-04-16T06:35:31;102372.16;;;3.19;67.72
70833;BME280;58452;59.418;17.962;2023-04-16T06:37:56;102371.53;;;3.35;66.78
70833;BME280;58452;59.418;17.962;2023-04-16T06:40:22;102381.72;;;3.37;66.44
70833;BME280;58452;59.418;17.962;2023-04-16T06:42:47;102380.34;;;3.27;66.27
70833;BME280;58452;59.418;17.962;2023-04-16T06:45:12;102386.47;;;3.46;66.53
70833;BME280;58452;59.418;17.962;2023-04-16T06:47:38;102384.03;;;3.66;65.58
70833;BME280;58452;59.418;17.962;2023-04-16T06:50:04;102390.44;;;3.76;64.93
70833;BME280;58452;59.418;17.962;2023-04-16T06:52:29;102393.47;;;3.86;63.30
70833;BME280;58452;59.418;17.962;2023-04-16T06:54:55;102398.09;;;4.00;63.54
70833;BME280;58452;59.418;17.962;2023-04-16T06:57:20;102392.72;;;4.06;63.22
70833;BME280;58452;59.418;17.962;2023-04-16T06:59:46;102393.72;;;4.02;63.43
70833;BME280;58452;59.418;17.962;2023-04-16T07:02:11;102393.47;;;4.08;62.57
70833;BME280;58452;59.418;17.962;2023-04-16T07:04:37;102391.19;;;4.02;62.81
70833;BME280;58452;59.418;17.962;2023-04-16T07:07:02;102395.56;;;4.20;62.66
70833;BME280;58452;59.418;17.962;2023-04-16T07:09:28;102389.97;;;4.32;62.37
70833;BME280;58452;59.418;17.962;2023-04-16T07:11:53;102391.28;;;4.42;60.78
70833;BME280;58452;59.418;17.962;2023-04-16T07:14:19;102383.28;;;4.50;60.87
70833;BME280;58452;59.418;17.962;2023-04-16T07:16:44;102380.56;;;4.54;60.92
70833;BME280;58452;59.418;17.962;2023-04-16T07:19:10;102387.66;;;4.68;60.14
70833;BME280;58452;59.418;17.962;2023-04-16T07:21:35;102396.13;;;4.48;60.52
70833;BME280;58452;59.418;17.962;2023-04-16T07:24:01;102396.72;;;4.55;59.28
70833;BME280;58452;59.418;17.962;2023-04-16T07:26:27;102391.19;;;4.65;59.30
70833;BME280;58452;59.418;17.962;2023-04-16T07:28:52;102385.16;;;4.66;58.75
70833;BME280;58452;59.418;17.962;2023-04-16T07:31:18;102393.22;;;4.77;59.42
70833;BME280;58452;59.418;17.962;2023-04-16T07:33:43;102382.97;;;4.77;59.66
70833;BME280;58452;59.418;17.962;2023-04-16T07:36:09;102383.25;;;4.71;57.76
70833;BME280;58452;59.418;17.962;2023-04-16T07:38:35;102374.16;;;4.84;58.46
70833;BME280;58452;59.418;17.962;2023-04-16T07:41:00;102378.00;;;4.95;58.00
70833;BME280;58452;59.418;17.962;2023-04-16T07:43:26;102367.44;;;5.02;56.67
70833;BME280;58452;59.418;17.962;2023-04-16T07:45:51;102370.56;;;5.09;55.88
70833;BME280;58452;59.418;17.962;2023-04-16T07:48:17;102384.47;;;5.22;56.94
70833;BME280;58452;59.418;17.962;2023-04-16T07:50:42;102377.72;;;5.21;55.81
70833;BME280;58452;59.418;17.962;2023-04-16T07:53:08;102381.59;;;5.29;56.56
70833;BME280;58452;59.418;17.962;2023-04-16T07:55:33;102390.88;;;5.32;55.39
70833;BME280;58452;59.418;17.962;2023-04-16T07:57:59;102390.31;;;5.44;55.20
70833;BME280;58452;59.418;17.962;2023-04-16T08:00:25;102387.63;;;5.47;55.94
70833;BME280;58452;59.418;17.962;2023-04-16T08:02:50;102381.66;;;5.65;54.77
70833;BME280;58452;59.418;17.962;2023-04-16T08:05:16;102383.38;;;5.83;54.41
70833;BME280;58452;59.418;17.962;2023-04-16T08:07:41;102381.19;;;5.95;53.97
70833;BME280;58452;59.418;17.962;2023-04-16T08:10:07;102375.94;;;5.98;53.39
70833;BME280;58452;59.418;17.962;2023-04-16T08:12:33;102386.16;;;6.16;53.08
70833;BME280;58452;59.418;17.962;2023-04-16T08:14:59;102385.72;;;6.25;53.78
70833;BME280;58452;59.418;17.962;2023-04-16T08:17:24;102381.78;;;6.35;52.46
70833;BME280;58452;59.418;17.962;2023-04-16T08:19:50;102373.13;;;6.38;51.15
70833;BME280;58452;59.418;17.962;2023-04-16T08:22:15;102369.94;;;6.50;51.73
70833;BME280;58452;59.418;17.962;2023-04-16T08:24:41;102384.75;;;6.45;51.91
70833;BME280;58452;59.418;17.962;2023-04-16T08:27:06;102376.44;;;6.57;52.01
70833;BME280;58452;59.418;17.962;2023-04-16T08:29:32;102367.91;;;6.74;51.31
70833;BME280;58452;59.418;17.962;2023-04-16T08:32:00;102379.72;;;6.94;51.13
70833;BME280;58452;59.418;17.962;2023-04-16T08:34:26;102370.97;;;6.98;50.67
70833;BME280;58452;59.418;17.962;2023-04-16T08:36:51;102370.84;;;7.01;51.20
70833;BME280;58452;59.418;17.962;2023-04-16T08:39:16;102368.78;;;7.23;51.45
70833;BME280;58452;59.418;17.962;2023-04-16T08:41:44;102373.00;;;7.41;49.95
70833;BME280;58452;59.418;17.962;2023-04-16T08:44:19;102367.59;;;7.46;49.37
70833;BME280;58452;59.418;17.962;2023-04-16T08:46:45;102365.38;;;7.55;49.45
70833;BME280;58452;59.418;17.962;2023-04-16T08:49:15;102368.75;;;7.71;49.44
70833;BME280;58452;59.418;17.962;2023-04-16T08:51:44;102370.84;;;7.80;48.89
70833;BME280;58452;59.418;17.962;2023-04-16T08:56:48;102371.09;;;7.92;48.48
70833;BME280;58452;59.418;17.962;2023-04-16T08:59:14;102373.72;;;8.06;47.91
70833;BME280;58452;59.418;17.962;2023-04-16T09:01:40;102380.47;;;8.22;47.08
70833;BME280;58452;59.418;17.962;2023-04-16T09:04:06;102372.03;;;8.36;46.64
70833;BME280;58452;59.418;17.962;2023-04-16T09:06:32;102375.91;;;8.43;46.22
70833;BME280;58452;59.418;17.962;2023-04-16T09:08:59;102371.31;;;8.48;46.30
70833;BME280;58452;59.418;17.962;2023-04-16T09:11:29;102375.94;;;8.57;46.61
70833;BME280;58452;59.418;17.962;2023-04-16T09:13:54;102368.06;;;8.74;45.45
70833;BME280;58452;59.418;17.962;2023-04-16T09:16:22;102376.91;;;8.84;46.03
70833;BME280;58452;59.418;17.962;2023-04-16T09:18:48;102373.41;;;9.00;45.62
70833;BME280;58452;59.418;17.962;2023-04-16T09:21:14;102370.94;;;9.12;44.24
70833;BME280;58452;59.418;17.962;2023-04-16T09:23:40;102368.28;;;9.28;43.98
70833;BME280;58452;59.418;17.962;2023-04-16T09:26:06;102371.28;;;9.49;44.50
70833;BME280;58452;59.418;17.962;2023-04-16T09:28:41;102363.28;;;9.53;43.86
70833;BME280;58452;59.418;17.962;2023-04-16T09:31:15;102369.31;;;9.66;42.93
70833;BME280;58452;59.418;17.962;2023-04-16T09:33:41;102369.81;;;9.86;43.85
70833;BME280;58452;59.418;17.962;2023-04-16T09:36:08;102366.66;;;9.95;42.06
70833;BME280;58452;59.418;17.962;2023-04-16T09:38:51;102376.69;;;9.99;41.76
70833;BME280;58452;59.418;17.962;2023-04-16T09:41:17;102368.66;;;10.04;42.61
70833;BME280;58452;59.418;17.962;2023-04-16T09:44:02;102372.66;;;10.22;40.72
70833;BME280;58452;59.418;17.962;2023-04-16T09:46:36;102368.69;;;10.43;41.15
70833;BME280;58452;59.418;17.962;2023-04-16T09:51:40;102363.34;;;10.71;38.89
70833;BME280;58452;59.418;17.962;2023-04-16T09:54:06;102363.97;;;10.62;39.65
70833;BME280;58452;59.418;17.962;2023-04-16T09:56:32;102364.69;;;10.77;40.14
70833;BME280;58452;59.418;17.962;2023-04-16T09:59:00;102359.50;;;11.02;39.95
70833;BME280;58452;59.418;17.962;2023-04-16T10:01:26;102363.72;;;11.16;39.50
70833;BME280;58452;59.418;17.962;2023-04-16T10:03:53;102365.69;;;11.25;38.08
70833;BME280;58452;59.418;17.962;2023-04-16T10:06:21;102360.53;;;11.25;37.83
70833;BME280;58452;59.418;17.962;2023-04-16T10:08:54;102363.41;;;11.20;37.69
70833;BME280;58452;59.418;17.962;2023-04-16T10:11:23;102357.41;;;11.33;38.77
70833;BME280;58452;59.418;17.962;2023-04-16T10:13:49;102361.91;;;11.54;37.54
70833;BME280;58452;59.418;17.962;2023-04-16T10:16:15;102352.16;;;11.58;37.61
70833;BME280;58452;59.418;17.962;2023-04-16T10:18:42;102362.47;;;11.70;35.67
70833;BME280;58452;59.418;17.962;2023-04-16T10:21:08;102357.78;;;11.88;35.34
70833;BME280;58452;59.418;17.962;2023-04-16T10:23:37;102358.38;;;11.92;35.47
70833;BME280;58452;59.418;17.962;2023-04-16T10:26:04;102365.00;;;11.96;35.22
70833;BME280;58452;59.418;17.962;2023-04-16T10:28:30;102361.06;;;12.14;37.02
70833;BME280;58452;59.418;17.962;2023-04-16T10:31:00;102362.50;;;12.29;35.78
70833;BME280;58452;59.418;17.962;2023-04-16T10:33:30;102351.81;;;12.34;36.62
70833;BME280;58452;59.418;17.962;2023-04-16T10:36:15;102357.88;;;12.56;34.63
70833;BME280;58452;59.418;17.962;2023-04-16T10:38:51;102352.47;;;12.59;35.06
70833;BME280;58452;59.418;17.962;2023-04-16T10:41:19;102356.16;;;12.68;33.95
70833;BME280;58452;59.418;17.962;2023-04-16T10:43:47;102355.44;;;12.77;34.28
70833;BME280;58452;59.418;17.962;2023-04-16T10:46:45;102353.44;;;12.92;34.95
70833;BME280;58452;59.418;17.962;2023-04-16T10:49:18;102351.59;;;13.05;32.87
70833;BME280;58452;59.418;17.962;2023-04-16T10:51:57;102355.88;;;13.17;34.13
70833;BME280;58452;59.418;17.962;2023-04-16T10:54:26;102354.28;;;13.37;34.09
70833;BME280;58452;59.418;17.962;2023-04-16T10:56:54;102354.63;;;13.43;34.56
70833;BME280;58452;59.418;17.962;2023-04-16T10:59:22;102353.22;;;13.39;33.91
70833;BME280;58452;59.418;17.962;2023-04-16T11:01:53;102352.38;;;13.61;32.96
70833;BME280;58452;59.418;17.962;2023-04-16T11:09:52;102355.00;;;13.93;31.71
70833;BME280;58452;59.418;17.962;2023-04-16T11:12:34;102358.22;;;14.06;33.02
70833;BME280;58452;59.418;17.962;2023-04-16T11:15:05;102363.38;;;14.17;31.52
70833;BME280;58452;59.418;17.962;2023-04-16T11:17:47;102356.09;;;14.11;32.82
70833;BME280;58452;59.418;17.962;2023-04-16T11:20:22;102358.91;;;14.19;32.74
70833;BME280;58452;59.418;17.962;2023-04-16T11:22:49;102360.78;;;14.49;33.76
70833;BME280;58452;59.418;17.962;2023-04-16T11:25:25;102349.66;;;14.67;31.03
70833;BME280;58452;59.418;17.962;2023-04-16T11:27:51;102350.44;;;14.58;30.28
70833;BME280;58452;59.418;17.962;2023-04-16T11:30:26;102344.53;;;14.77;31.26
70833;BME280;58452;59.418;17.962;2023-04-16T11:32:52;102343.34;;;14.91;29.64
70833;BME280;58452;59.418;17.962;2023-04-16T11:35:18;102342.03;;;15.06;30.44
70833;BME280;58452;59.418;17.962;2023-04-16T11:37:44;102336.75;;;15.27;30.45
70833;BME280;58452;59.418;17.962;2023-04-16T11:40:10;102343.97;;;15.53;29.14
70833;BME280;58452;59.418;17.962;2023-04-16T11:42:40;102338.41;;;15.37;28.34
70833;BME280;58452;59.418;17.962;2023-04-16T11:45:10;102344.34;;;15.39;28.28
70833;BME280;58452;59.418;17.962;2023-04-16T11:47:47;102343.19;;;15.62;29.03
70833;BME280;58452;59.418;17.962;2023-04-16T11:52:44;102340.84;;;15.79;28.33
70833;BME280;58452;59.418;17.962;2023-04-16T11:55:09;102335.13;;;15.85;29.04
70833;BME280;58452;59.418;17.962;2023-04-16T11:57:35;102334.00;;;15.78;27.58
70833;BME280;58452;59.418;17.962;2023-04-16T12:00:02;102334.41;;;15.83;27.26
70833;BME280;58452;59.418;17.962;2023-04-16T12:02:50;102324.81;;;15.93;28.12
70833;BME280;58452;59.418;17.962;2023-04-16T12:05:35;102328.94;;;16.05;28.16
70833;BME280;58452;59.418;17.962;2023-04-16T12:08:07;102329.44;;;16.37;27.01
70833;BME280;58452;59.418;17.962;2023-04-16T12:10:51;102325.88;;;16.57;25.81
70833;BME280;58452;59.418;17.962;2023-04-16T12:13:17;102321.44;;;16.48;24.56
70833;BME280;58452;59.418;17.962;2023-04-16T12:15:52;102325.47;;;16.33;26.25
70833;BME280;58452;59.418;17.962;2023-04-16T12:18:20;102328.34;;;16.30;27.00
70833;BME280;58452;59.418;17.962;2023-04-16T12:20:47;102321.75;;;16.92;28.06
70833;BME280;58452;59.418;17.962;2023-04-16T12:23:23;102317.00;;;16.78;24.95
70833;BME280;58452;59.418;17.962;2023-04-16T12:25:49;102321.06;;;16.90;25.59
70833;BME280;58452;59.418;17.962;2023-04-16T12:28:36;102332.19;;;17.19;27.47
70833;BME280;58452;59.418;17.962;2023-04-16T12:31:03;102324.63;;;17.43;26.03
70833;BME280;58452;59.418;17.962;2023-04-16T12:33:29;102328.88;;;17.17;25.24
70833;BME280;58452;59.418;17.962;2023-04-16T12:35:55;102327.81;;;17.10;25.70
70833;BME280;58452;59.418;17.962;2023-04-16T12:38:20;102322.59;;;17.65;23.76
70833;BME280;58452;59.418;17.962;2023-04-16T12:40:46;102318.91;;;17.57;26.91
70833;BME280;58452;59.418;17.962;2023-04-16T12:43:12;102324.22;;;18.01;26.63
70833;BME280;58452;59.418;17.962;2023-04-16T12:45:38;102319.28;;;18.41;25.23
70833;BME280;58452;59.418;17.962;2023-04-16T12:48:04;102328.28;;;18.21;22.99
70833;BME280;58452;59.418;17.962;2023-04-16T12:50:30;102315.19;;;18.65;25.13
70833;BME280;58452;59.418;17.962;2023-04-16T12:52:56;102304.19;;;18.95;23.54
70833;BME280;58452;59.418;17.962;2023-04-16T12:55:22;102314.06;;;19.09;24.95
70833;BME280;58452;59.418;17.962;2023-04-16T12:57:49;102315.94;;;19.33;24.07
70833;BME280;58452;59.418;17.962;2023-04-16T13:00:17;102318.69;;;19.23;22.58